sensor_id;sensor_type;location;lat;lon;timestamp;P1;durP1;ratioP1;P2;durP2;ratioP2
6842;SDS011;3460;52.028;8.916;2023-05-07T00:00:21;20.47;;;14.93;;
6842;SDS011;3460;52.028;8.916;2023-05-07T00:02:48;20.77;;;14.90;;
6842;SDS011;3460;52.028;8.916;2023-05-07T00:05:15;27.43;;;16.40;;
6842;SDS011;3460;52.028;8.916;2023-05-07T00:07:42;21.53;;;15.43;;
6842;SDS011;3460;52.028;8.916;2023-05-07T00:10:09;21.77;;;14.90;;
6842;SDS011;3460;52.028;8.916;2023-05-07T00:12:38;22.07;;;15.60;;
6842;SDS011;3460;52.028;8.916;2023-05-07T00:15:06;20.90;;;16.27;;
6842;SDS011;3460;52.028;8.916;2023-05-07T00:17:33;20.77;;;16.13;;
6842;SDS011;3460;52.028;8.916;2023-05-07T00:20:00;24.10;;;16.57;;
6842;SDS011;3460;52.028;8.916;2023-05-07T00:22:28;21.70;;;16.23;;
6842;SDS011;3460;52.028;8.916;2023-05-07T00:24:55;21.53;;;16.23;;
6842;SDS011;3460;52.028;8.916;2023-05-07T00:27:22;19.70;;;15.40;;
6842;SDS011;3460;52.028;8.916;2023-05-07T00:29:51;23.30;;;16.40;;
6842;SDS011;3460;52.028;8.916;2023-05-07T00:32:18;21.23;;;15.83;;
6842;SDS011;3460;52.028;8.916;2023-05-07T00:34:44;21.43;;;17.50;;
6842;SDS011;3460;52.028;8.916;2023-05-07T00:37:11;24.80;;;16.53;;
6842;SDS011;3460;52.028;8.916;2023-05-07T00:39:38;20.23;;;16.30;;
6842;SDS011;3460;52.028;8.916;2023-05-07T00:42:05;21.73;;;16.23;;
6842;SDS011;3460;52.028;8.916;2023-05-07T00:44:33;20.80;;;16.57;;
6842;SDS011;3460;52.028;8.916;2023-05-07T00:47:02;23.73;;;16.77;;
6842;SDS011;3460;52.028;8.916;2023-05-07T00:49:32;19.67;;;15.90;;
6842;SDS011;3460;52.028;8.916;2023-05-07T00:52:05;21.57;;;16.93;;
6842;SDS011;3460;52.028;8.916;2023-05-07T00:54:32;22.40;;;16.53;;
6842;SDS011;3460;52.028;8.916;2023-05-07T00:57:01;24.27;;;16.97;;
6842;SDS011;3460;52.028;8.916;2023-05-07T00:59:29;22.80;;;17.30;;
6842;SDS011;3460;52.028;8.916;2023-05-07T01:01:56;21.83;;;16.43;;
6842;SDS011;3460;52.028;8.916;2023-05-07T01:04:25;23.73;;;17.23;;
6842;SDS011;3460;52.028;8.916;2023-05-07T01:06:52;24.23;;;17.70;;
6842;SDS011;3460;52.028;8.916;2023-05-07T01:09:20;26.57;;;17.83;;
6842;SDS011;3460;52.028;8.916;2023-05-07T01:11:48;24.43;;;16.93;;
6842;SDS011;3460;52.028;8.916;2023-05-07T01:14:16;21.57;;;16.77;;
6842;SDS011;3460;52.028;8.916;2023-05-07T01:16:44;24.17;;;16.97;;
6842;SDS011;3460;52.028;8.916;2023-05-07T01:19:11;21.10;;;16.27;;
6842;SDS011;3460;52.028;8.916;2023-05-07T01:21:43;20.00;;;16.03;;
6842;SDS011;3460;52.028;8.916;2023-05-07T01:24:14;23.20;;;16.87;;
6842;SDS011;3460;52.028;8.916;2023-05-07T01:26:42;22.87;;;17.03;;
6842;SDS011;3460;52.028;8.916;2023-05-07T01:29:09;24.60;;;16.80;;
6842;SDS011;3460;52.028;8.916;2023-05-07T01:31:36;21.27;;;15.83;;
6842;SDS011;3460;52.028;8.916;2023-05-07T01:34:04;24.63;;;16.70;;
6842;SDS011;3460;52.028;8.916;2023-05-07T01:36:33;23.90;;;18.70;;
6842;SDS011;3460;52.028;8.916;2023-05-07T01:39:02;24.60;;;18.17;;
6842;SDS011;3460;52.028;8.916;2023-05-07T01:41:30;24.30;;;17.57;;
6842;SDS011;3460;52.028;8.916;2023-05-07T01:43:57;24.63;;;17.47;;
6842;SDS011;3460;52.028;8.916;2023-05-07T01:46:25;21.43;;;16.50;;
6842;SDS011;3460;52.028;8.916;2023-05-07T01:48:52;24.70;;;17.30;;
6842;SDS011;3460;52.028;8.916;2023-05-07T01:51:19;24.60;;;18.30;;
6842;SDS011;3460;52.028;8.916;2023-05-07T01:53:47;25.23;;;18.10;;
6842;SDS011;3460;52.028;8.916;2023-05-07T01:56:15;23.13;;;18.37;;
6842;SDS011;3460;52.028;8.916;2023-05-07T01:58:45;24.03;;;18.17;;
6842;SDS011;3460;52.028;8.916;2023-05-07T02:01:12;25.47;;;17.43;;
6842;SDS011;3460;52.028;8.916;2023-05-07T02:03:40;23.27;;;18.37;;
6842;SDS011;3460;52.028;8.916;2023-05-07T02:06:06;23.27;;;17.07;;
6842;SDS011;3460;52.028;8.916;2023-05-07T02:08:33;24.37;;;17.60;;
6842;SDS011;3460;52.028;8.916;2023-05-07T02:11:00;21.47;;;17.20;;
6842;SDS011;3460;52.028;8.916;2023-05-07T02:13:28;22.97;;;17.87;;
6842;SDS011;3460;52.028;8.916;2023-05-07T02:15:57;24.80;;;18.20;;
6842;SDS011;3460;52.028;8.916;2023-05-07T02:18:24;22.30;;;17.03;;
6842;SDS011;3460;52.028;8.916;2023-05-07T02:20:51;23.80;;;17.67;;
6842;SDS011;3460;52.028;8.916;2023-05-07T02:23:17;23.60;;;18.17;;
6842;SDS011;3460;52.028;8.916;2023-05-07T02:25:44;24.43;;;17.07;;
6842;SDS011;3460;52.028;8.916;2023-05-07T02:28:11;23.73;;;16.87;;
6842;SDS011;3460;52.028;8.916;2023-05-07T02:30:38;23.20;;;17.80;;
6842;SDS011;3460;52.028;8.916;2023-05-07T02:33:07;22.47;;;17.23;;
6842;SDS011;3460;52.028;8.916;2023-05-07T02:35:34;22.80;;;17.50;;
6842;SDS011;3460;52.028;8.916;2023-05-07T02:38:01;24.87;;;17.97;;
6842;SDS011;3460;52.028;8.916;2023-05-07T02:40:28;24.57;;;18.47;;
6842;SDS011;3460;52.028;8.916;2023-05-07T02:42:55;24.57;;;18.53;;
6842;SDS011;3460;52.028;8.916;2023-05-07T02:45:21;23.17;;;17.47;;
6842;SDS011;3460;52.028;8.916;2023-05-07T02:47:48;22.90;;;17.30;;
6842;SDS011;3460;52.028;8.916;2023-05-07T02:50:16;22.73;;;17.30;;
6842;SDS011;3460;52.028;8.916;2023-05-07T02:52:43;25.10;;;18.33;;
6842;SDS011;3460;52.028;8.916;2023-05-07T02:55:10;27.00;;;18.73;;
6842;SDS011;3460;52.028;8.916;2023-05-07T02:57:37;23.57;;;18.03;;
6842;SDS011;3460;52.028;8.916;2023-05-07T03:00:10;24.77;;;17.87;;
6842;SDS011;3460;52.028;8.916;2023-05-07T03:02:38;22.50;;;18.03;;
6842;SDS011;3460;52.028;8.916;2023-05-07T03:05:06;26.83;;;18.70;;
6842;SDS011;3460;52.028;8.916;2023-05-07T03:07:35;27.00;;;18.73;;
6842;SDS011;3460;52.028;8.916;2023-05-07T03:10:02;28.27;;;19.40;;
6842;SDS011;3460;52.028;8.916;2023-05-07T03:12:29;22.57;;;17.80;;
6842;SDS011;3460;52.028;8.916;2023-05-07T03:14:57;26.03;;;18.47;;
6842;SDS011;3460;52.028;8.916;2023-05-07T03:17:23;26.43;;;18.77;;
6842;SDS011;3460;52.028;8.916;2023-05-07T03:19:50;26.97;;;18.67;;
6842;SDS011;3460;52.028;8.916;2023-05-07T03:22:17;26.37;;;19.43;;
6842;SDS011;3460;52.028;8.916;2023-05-07T03:24:45;25.30;;;18.93;;
6842;SDS011;3460;52.028;8.916;2023-05-07T03:27:12;25.57;;;18.70;;
6842;SDS011;3460;52.028;8.916;2023-05-07T03:29:39;30.57;;;20.60;;
6842;SDS011;3460;52.028;8.916;2023-05-07T03:32:06;25.67;;;19.67;;
6842;SDS011;3460;52.028;8.916;2023-05-07T03:34:32;24.37;;;19.10;;
6842;SDS011;3460;52.028;8.916;2023-05-07T03:36:59;28.07;;;19.23;;
6842;SDS011;3460;52.028;8.916;2023-05-07T03:39:26;28.27;;;18.93;;
6842;SDS011;3460;52.028;8.916;2023-05-07T03:41:54;27.10;;;20.00;;
6842;SDS011;3460;52.028;8.916;2023-05-07T03:44:22;27.83;;;20.87;;
6842;SDS011;3460;52.028;8.916;2023-05-07T03:46:49;28.53;;;19.40;;
6842;SDS011;3460;52.028;8.916;2023-05-07T03:49:15;25.43;;;19.17;;
6842;SDS011;3460;52.028;8.916;2023-05-07T03:51:42;26.70;;;19.83;;
6842;SDS011;3460;52.028;8.916;2023-05-07T03:54:09;27.37;;;21.20;;
6842;SDS011;3460;52.028;8.916;2023-05-07T03:56:36;28.27;;;20.60;;
6842;SDS011;3460;52.028;8.916;2023-05-07T03:59:04;27.13;;;20.30;;
6842;SDS011;3460;52.028;8.916;2023-05-07T04:01:31;28.37;;;21.00;;
6842;SDS011;3460;52.028;8.916;2023-05-07T04:03:57;31.37;;;21.43;;
6842;SDS011;3460;52.028;8.916;2023-05-07T04:06:24;28.87;;;20.70;;
6842;SDS011;3460;52.028;8.916;2023-05-07T04:08:51;34.57;;;23.07;;
6842;SDS011;3460;52.028;8.916;2023-05-07T04:11:18;30.47;;;22.27;;
6842;SDS011;3460;52.028;8.916;2023-05-07T04:13:45;32.30;;;21.03;;
6842;SDS011;3460;52.028;8.916;2023-05-07T04:16:13;33.37;;;22.23;;
6842;SDS011;3460;52.028;8.916;2023-05-07T04:18:40;30.93;;;22.27;;
6842;SDS011;3460;52.028;8.916;2023-05-07T04:21:13;30.13;;;22.50;;
6842;SDS011;3460;52.028;8.916;2023-05-07T04:23:40;28.67;;;21.40;;
6842;SDS011;3460;52.028;8.916;2023-05-07T04:26:07;28.20;;;20.63;;
6842;SDS011;3460;52.028;8.916;2023-05-07T04:28:34;28.37;;;21.10;;
6842;SDS011;3460;52.028;8.916;2023-05-07T04:31:01;31.90;;;21.30;;
6842;SDS011;3460;52.028;8.916;2023-05-07T04:33:30;28.50;;;20.57;;
6842;SDS011;3460;52.028;8.916;2023-05-07T04:35:56;29.97;;;21.80;;
6842;SDS011;3460;52.028;8.916;2023-05-07T04:38:27;34.90;;;21.60;;
6842;SDS011;3460;52.028;8.916;2023-05-07T04:40:54;28.67;;;20.67;;
6842;SDS011;3460;52.028;8.916;2023-05-07T04:43:21;30.67;;;22.30;;
6842;SDS011;3460;52.028;8.916;2023-05-07T04:45:49;30.77;;;21.80;;
6842;SDS011;3460;52.028;8.916;2023-05-07T04:48:16;29.03;;;21.67;;
6842;SDS011;3460;52.028;8.916;2023-05-07T04:50:45;31.10;;;22.00;;
6842;SDS011;3460;52.028;8.916;2023-05-07T04:53:13;31.10;;;22.00;;
6842;SDS011;3460;52.028;8.916;2023-05-07T04:55:40;30.70;;;21.80;;
6842;SDS011;3460;52.028;8.916;2023-05-07T04:58:07;29.83;;;21.73;;
6842;SDS011;3460;52.028;8.916;2023-05-07T05:00:34;29.57;;;21.70;;
6842;SDS011;3460;52.028;8.916;2023-05-07T05:03:01;31.07;;;21.53;;
6842;SDS011;3460;52.028;8.916;2023-05-07T05:05:28;31.40;;;21.80;;
6842;SDS011;3460;52.028;8.916;2023-05-07T05:07:56;30.43;;;21.97;;
6842;SDS011;3460;52.028;8.916;2023-05-07T05:10:23;29.73;;;20.43;;
6842;SDS011;3460;52.028;8.916;2023-05-07T05:12:50;30.47;;;21.13;;
6842;SDS011;3460;52.028;8.916;2023-05-07T05:15:17;29.87;;;20.87;;
6842;SDS011;3460;52.028;8.916;2023-05-07T05:17:44;28.43;;;19.83;;
6842;SDS011;3460;52.028;8.916;2023-05-07T05:20:11;29.87;;;20.67;;
6842;SDS011;3460;52.028;8.916;2023-05-07T05:22:37;32.80;;;21.37;;
6842;SDS011;3460;52.028;8.916;2023-05-07T05:25:06;31.87;;;20.47;;
6842;SDS011;3460;52.028;8.916;2023-05-07T05:27:34;27.60;;;19.80;;
6842;SDS011;3460;52.028;8.916;2023-05-07T05:30:01;28.87;;;20.13;;
6842;SDS011;3460;52.028;8.916;2023-05-07T05:32:27;27.57;;;20.30;;
6842;SDS011;3460;52.028;8.916;2023-05-07T05:34:54;28.90;;;19.23;;
6842;SDS011;3460;52.028;8.916;2023-05-07T05:37:21;27.90;;;19.83;;
6842;SDS011;3460;52.028;8.916;2023-05-07T05:39:48;24.47;;;18.60;;
6842;SDS011;3460;52.028;8.916;2023-05-07T05:42:16;26.53;;;19.27;;
6842;SDS011;3460;52.028;8.916;2023-05-07T05:44:43;25.73;;;18.37;;
6842;SDS011;3460;52.028;8.916;2023-05-07T05:47:10;25.83;;;18.43;;
6842;SDS011;3460;52.028;8.916;2023-05-07T05:49:37;23.83;;;17.70;;
6842;SDS011;3460;52.028;8.916;2023-05-07T05:52:03;26.33;;;18.50;;
6842;SDS011;3460;52.028;8.916;2023-05-07T05:54:30;24.60;;;17.50;;
6842;SDS011;3460;52.028;8.916;2023-05-07T05:56:57;24.60;;;17.40;;
6842;SDS011;3460;52.028;8.916;2023-05-07T05:59:25;26.00;;;18.00;;
6842;SDS011;3460;52.028;8.916;2023-05-07T06:01:52;25.53;;;17.63;;
6842;SDS011;3460;52.028;8.916;2023-05-07T06:04:19;22.13;;;15.60;;
6842;SDS011;3460;52.028;8.916;2023-05-07T06:06:46;22.30;;;16.10;;
6842;SDS011;3460;52.028;8.916;2023-05-07T06:09:13;24.23;;;17.17;;
6842;SDS011;3460;52.028;8.916;2023-05-07T06:11:39;23.07;;;17.13;;
6842;SDS011;3460;52.028;8.916;2023-05-07T06:14:07;22.80;;;16.40;;
6842;SDS011;3460;52.028;8.916;2023-05-07T06:16:36;22.90;;;16.23;;
6842;SDS011;3460;52.028;8.916;2023-05-07T06:19:07;24.80;;;15.63;;
6842;SDS011;3460;52.028;8.916;2023-05-07T06:21:33;20.57;;;16.03;;
6842;SDS011;3460;52.028;8.916;2023-05-07T06:24:00;20.10;;;15.33;;
6842;SDS011;3460;52.028;8.916;2023-05-07T06:26:27;21.50;;;14.53;;
6842;SDS011;3460;52.028;8.916;2023-05-07T06:28:54;20.20;;;15.33;;
6842;SDS011;3460;52.028;8.916;2023-05-07T06:31:21;19.60;;;13.27;;
6842;SDS011;3460;52.028;8.916;2023-05-07T06:33:49;19.27;;;14.33;;
6842;SDS011;3460;52.028;8.916;2023-05-07T06:36:16;21.90;;;13.77;;
6842;SDS011;3460;52.028;8.916;2023-05-07T06:38:43;21.87;;;13.90;;
6842;SDS011;3460;52.028;8.916;2023-05-07T06:41:09;16.47;;;12.33;;
6842;SDS011;3460;52.028;8.916;2023-05-07T06:43:36;16.03;;;11.93;;
6842;SDS011;3460;52.028;8.916;2023-05-07T06:46:03;16.27;;;12.63;;
6842;SDS011;3460;52.028;8.916;2023-05-07T06:48:30;17.57;;;12.93;;
6842;SDS011;3460;52.028;8.916;2023-05-07T06:50:58;16.00;;;11.90;;
6842;SDS011;3460;52.028;8.916;2023-05-07T06:53:25;17.20;;;12.07;;
6842;SDS011;3460;52.028;8.916;2023-05-07T06:55:53;15.03;;;11.10;;
6842;SDS011;3460;52.028;8.916;2023-05-07T06:58:20;15.00;;;11.60;;
6842;SDS011;3460;52.028;8.916;2023-05-07T07:00:46;16.13;;;11.70;;
6842;SDS011;3460;52.028;8.916;2023-05-07T07:03:13;14.57;;;11.20;;
6842;SDS011;3460;52.028;8.916;2023-05-07T07:05:40;16.73;;;11.30;;
6842;SDS011;3460;52.028;8.916;2023-05-07T07:08:09;13.80;;;11.13;;
6842;SDS011;3460;52.028;8.916;2023-05-07T07:10:36;16.30;;;11.60;;
6842;SDS011;3460;52.028;8.916;2023-05-07T07:13:03;16.47;;;10.83;;
6842;SDS011;3460;52.028;8.916;2023-05-07T07:15:30;12.83;;;10.27;;
6842;SDS011;3460;52.028;8.916;2023-05-07T07:17:56;12.77;;;10.00;;
6842;SDS011;3460;52.028;8.916;2023-05-07T07:20:23;13.63;;;9.50;;
6842;SDS011;3460;52.028;8.916;2023-05-07T07:22:50;13.27;;;9.67;;
6842;SDS011;3460;52.028;8.916;2023-05-07T07:25:19;13.47;;;9.60;;
6842;SDS011;3460;52.028;8.916;2023-05-07T07:27:45;13.53;;;9.30;;
6842;SDS011;3460;52.028;8.916;2023-05-07T07:30:12;13.10;;;9.73;;
6842;SDS011;3460;52.028;8.916;2023-05-07T07:32:39;16.07;;;9.40;;
6842;SDS011;3460;52.028;8.916;2023-05-07T07:35:06;10.83;;;8.43;;
6842;SDS011;3460;52.028;8.916;2023-05-07T07:37:34;11.10;;;8.07;;
6842;SDS011;3460;52.028;8.916;2023-05-07T07:40:00;12.17;;;8.53;;
6842;SDS011;3460;52.028;8.916;2023-05-07T07:42:29;11.17;;;8.50;;
6842;SDS011;3460;52.028;8.916;2023-05-07T07:44:56;12.63;;;8.20;;
6842;SDS011;3460;52.028;8.916;2023-05-07T07:47:23;11.57;;;7.57;;
6842;SDS011;3460;52.028;8.916;2023-05-07T07:49:50;10.60;;;7.73;;
6842;SDS011;3460;52.028;8.916;2023-05-07T07:52:16;9.90;;;7.83;;
6842;SDS011;3460;52.028;8.916;2023-05-07T07:54:44;9.83;;;7.33;;
6842;SDS011;3460;52.028;8.916;2023-05-07T07:57:11;10.77;;;7.80;;
6842;SDS011;3460;52.028;8.916;2023-05-07T07:59:39;10.70;;;7.27;;
6842;SDS011;3460;52.028;8.916;2023-05-07T08:02:08;9.60;;;6.90;;
6842;SDS011;3460;52.028;8.916;2023-05-07T08:04:34;9.83;;;7.67;;
6842;SDS011;3460;52.028;8.916;2023-05-07T08:07:02;11.00;;;7.63;;
6842;SDS011;3460;52.028;8.916;2023-05-07T08:09:29;10.33;;;7.70;;
6842;SDS011;3460;52.028;8.916;2023-05-07T08:11:56;9.63;;;7.40;;
6842;SDS011;3460;52.028;8.916;2023-05-07T08:14:22;9.20;;;7.47;;
6842;SDS011;3460;52.028;8.916;2023-05-07T08:16:51;11.10;;;7.30;;
6842;SDS011;3460;52.028;8.916;2023-05-07T08:19:17;8.63;;;7.20;;
6842;SDS011;3460;52.028;8.916;2023-05-07T08:21:44;10.20;;;7.37;;
6842;SDS011;3460;52.028;8.916;2023-05-07T08:24:12;10.20;;;7.73;;
6842;SDS011;3460;52.028;8.916;2023-05-07T08:26:39;9.37;;;7.57;;
6842;SDS011;3460;52.028;8.916;2023-05-07T08:29:06;9.80;;;7.13;;
6842;SDS011;3460;52.028;8.916;2023-05-07T08:31:33;10.03;;;7.50;;
6842;SDS011;3460;52.028;8.916;2023-05-07T08:34:02;9.03;;;7.37;;
6842;SDS011;3460;52.028;8.916;2023-05-07T08:36:29;9.60;;;7.80;;
6842;SDS011;3460;52.028;8.916;2023-05-07T08:38:56;9.53;;;7.80;;
6842;SDS011;3460;52.028;8.916;2023-05-07T08:41:23;9.00;;;7.37;;
6842;SDS011;3460;52.028;8.916;2023-05-07T08:43:50;8.97;;;7.63;;
6842;SDS011;3460;52.028;8.916;2023-05-07T08:46:18;9.37;;;7.30;;
6842;SDS011;3460;52.028;8.916;2023-05-07T08:48:47;8.87;;;7.63;;
6842;SDS011;3460;52.028;8.916;2023-05-07T08:51:17;11.60;;;7.90;;
6842;SDS011;3460;52.028;8.916;2023-05-07T08:53:45;9.20;;;7.23;;
6842;SDS011;3460;52.028;8.916;2023-05-07T08:56:13;9.03;;;7.10;;
6842;SDS011;3460;52.028;8.916;2023-05-07T08:58:41;7.83;;;6.47;;
6842;SDS011;3460;52.028;8.916;2023-05-07T09:01:08;9.27;;;6.97;;
6842;SDS011;3460;52.028;8.916;2023-05-07T09:03:38;9.00;;;6.57;;
6842;SDS011;3460;52.028;8.916;2023-05-07T09:06:06;8.77;;;7.07;;
6842;SDS011;3460;52.028;8.916;2023-05-07T09:08:34;10.30;;;7.17;;
6842;SDS011;3460;52.028;8.916;2023-05-07T09:11:02;9.53;;;7.13;;
6842;SDS011;3460;52.028;8.916;2023-05-07T09:13:29;10.10;;;6.60;;
6842;SDS011;3460;52.028;8.916;2023-05-07T09:15:56;9.77;;;6.47;;
6842;SDS011;3460;52.028;8.916;2023-05-07T09:18:23;9.23;;;6.57;;
6842;SDS011;3460;52.028;8.916;2023-05-07T09:20:50;7.87;;;6.43;;
6842;SDS011;3460;52.028;8.916;2023-05-07T09:23:17;8.03;;;6.40;;
6842;SDS011;3460;52.028;8.916;2023-05-07T09:25:45;8.07;;;6.47;;
6842;SDS011;3460;52.028;8.916;2023-05-07T09:28:12;6.67;;;5.83;;
6842;SDS011;3460;52.028;8.916;2023-05-07T09:30:39;7.10;;;6.17;;
6842;SDS011;3460;52.028;8.916;2023-05-07T09:33:06;8.73;;;6.40;;
6842;SDS011;3460;52.028;8.916;2023-05-07T09:35:32;7.10;;;5.60;;
6842;SDS011;3460;52.028;8.916;2023-05-07T09:38:00;7.60;;;5.97;;
6842;SDS011;3460;52.028;8.916;2023-05-07T09:40:28;7.77;;;6.37;;
6842;SDS011;3460;52.028;8.916;2023-05-07T09:43:01;6.43;;;5.60;;
6842;SDS011;3460;52.028;8.916;2023-05-07T09:45:35;7.17;;;5.90;;
6842;SDS011;3460;52.028;8.916;2023-05-07T09:48:03;7.00;;;5.23;;
6842;SDS011;3460;52.028;8.916;2023-05-07T09:50:32;6.20;;;5.17;;
6842;SDS011;3460;52.028;8.916;2023-05-07T09:53:03;6.53;;;5.47;;
6842;SDS011;3460;52.028;8.916;2023-05-07T09:55:30;6.07;;;5.00;;
6842;SDS011;3460;52.028;8.916;2023-05-07T09:57:59;7.60;;;5.00;;
6842;SDS011;3460;52.028;8.916;2023-05-07T10:00:27;6.00;;;4.90;;
6842;SDS011;3460;52.028;8.916;2023-05-07T10:02:55;6.27;;;5.17;;
6842;SDS011;3460;52.028;8.916;2023-05-07T10:05:23;5.30;;;4.80;;
6842;SDS011;3460;52.028;8.916;2023-05-07T10:07:51;6.73;;;5.30;;
6842;SDS011;3460;52.028;8.916;2023-05-07T10:10:19;6.23;;;4.80;;
6842;SDS011;3460;52.028;8.916;2023-05-07T10:12:47;6.40;;;4.73;;
6842;SDS011;3460;52.028;8.916;2023-05-07T10:15:16;6.33;;;4.50;;
6842;SDS011;3460;52.028;8.916;2023-05-07T10:17:43;5.63;;;4.33;;
6842;SDS011;3460;52.028;8.916;2023-05-07T10:20:10;6.77;;;5.43;;
6842;SDS011;3460;52.028;8.916;2023-05-07T10:22:38;7.93;;;4.73;;
6842;SDS011;3460;52.028;8.916;2023-05-07T10:25:09;5.60;;;4.47;;
6842;SDS011;3460;52.028;8.916;2023-05-07T10:27:44;5.63;;;4.20;;
6842;SDS011;3460;52.028;8.916;2023-05-07T10:30:15;4.57;;;3.83;;
6842;SDS011;3460;52.028;8.916;2023-05-07T10:32:53;7.67;;;4.17;;
6842;SDS011;3460;52.028;8.916;2023-05-07T10:35:24;5.50;;;3.93;;
6842;SDS011;3460;52.028;8.916;2023-05-07T10:37:53;5.60;;;4.57;;
6842;SDS011;3460;52.028;8.916;2023-05-07T10:40:20;5.60;;;3.90;;
6842;SDS011;3460;52.028;8.916;2023-05-07T10:42:55;4.63;;;4.00;;
6842;SDS011;3460;52.028;8.916;2023-05-07T10:45:24;6.63;;;4.40;;
6842;SDS011;3460;52.028;8.916;2023-05-07T10:48:08;5.00;;;3.90;;
6842;SDS011;3460;52.028;8.916;2023-05-07T10:50:35;4.77;;;4.13;;
6842;SDS011;3460;52.028;8.916;2023-05-07T10:53:21;4.23;;;3.83;;
6842;SDS011;3460;52.028;8.916;2023-05-07T10:58:52;5.00;;;3.87;;
6842;SDS011;3460;52.028;8.916;2023-05-07T11:04:18;4.97;;;3.50;;
6842;SDS011;3460;52.028;8.916;2023-05-07T11:09:57;5.47;;;3.90;;
6842;SDS011;3460;52.028;8.916;2023-05-07T11:15:15;4.67;;;3.87;;
6842;SDS011;3460;52.028;8.916;2023-05-07T11:18:02;4.57;;;3.73;;
6842;SDS011;3460;52.028;8.916;2023-05-07T11:26:16;5.53;;;4.00;;
6842;SDS011;3460;52.028;8.916;2023-05-07T11:28:43;4.23;;;3.83;;
6842;SDS011;3460;52.028;8.916;2023-05-07T11:31:10;5.37;;;4.70;;
6842;SDS011;3460;52.028;8.916;2023-05-07T11:33:38;5.70;;;4.43;;
6842;SDS011;3460;52.028;8.916;2023-05-07T11:36:07;4.73;;;4.07;;
6842;SDS011;3460;52.028;8.916;2023-05-07T11:38:35;4.13;;;3.73;;
6842;SDS011;3460;52.028;8.916;2023-05-07T11:41:02;4.27;;;3.80;;
6842;SDS011;3460;52.028;8.916;2023-05-07T11:43:30;4.07;;;3.67;;
6842;SDS011;3460;52.028;8.916;2023-05-07T11:46:04;4.37;;;3.60;;
6842;SDS011;3460;52.028;8.916;2023-05-07T11:48:33;4.30;;;3.57;;
6842;SDS011;3460;52.028;8.916;2023-05-07T11:51:01;4.40;;;3.50;;
6842;SDS011;3460;52.028;8.916;2023-05-07T11:53:34;5.07;;;3.80;;
6842;SDS011;3460;52.028;8.916;2023-05-07T11:56:05;4.87;;;3.93;;
6842;SDS011;3460;52.028;8.916;2023-05-07T11:58:33;4.70;;;3.53;;
6842;SDS011;3460;52.028;8.916;2023-05-07T12:01:00;5.87;;;4.30;;
6842;SDS011;3460;52.028;8.916;2023-05-07T12:03:27;6.53;;;3.77;;
6842;SDS011;3460;52.028;8.916;2023-05-07T12:05:54;6.03;;;4.27;;
6842;SDS011;3460;52.028;8.916;2023-05-07T12:08:22;4.60;;;3.60;;
6842;SDS011;3460;52.028;8.916;2023-05-07T12:10:49;6.10;;;3.90;;
6842;SDS011;3460;52.028;8.916;2023-05-07T12:13:17;4.83;;;4.17;;
6842;SDS011;3460;52.028;8.916;2023-05-07T12:15:45;4.30;;;3.57;;
6842;SDS011;3460;52.028;8.916;2023-05-07T12:18:13;5.27;;;4.10;;
6842;SDS011;3460;52.028;8.916;2023-05-07T12:20:40;5.90;;;4.10;;
6842;SDS011;3460;52.028;8.916;2023-05-07T12:23:07;5.00;;;3.93;;
6842;SDS011;3460;52.028;8.916;2023-05-07T12:25:35;6.73;;;4.10;;
6842;SDS011;3460;52.028;8.916;2023-05-07T12:28:03;6.03;;;4.33;;
6842;SDS011;3460;52.028;8.916;2023-05-07T12:30:30;6.53;;;4.60;;
6842;SDS011;3460;52.028;8.916;2023-05-07T12:32:58;5.20;;;4.70;;
6842;SDS011;3460;52.028;8.916;2023-05-07T12:35:28;7.13;;;4.67;;
6842;SDS011;3460;52.028;8.916;2023-05-07T12:37:55;4.87;;;4.37;;
6842;SDS011;3460;52.028;8.916;2023-05-07T12:40:24;5.30;;;4.73;;
6842;SDS011;3460;52.028;8.916;2023-05-07T12:42:53;8.60;;;4.80;;
6842;SDS011;3460;52.028;8.916;2023-05-07T12:45:20;5.93;;;5.07;;
6842;SDS011;3460;52.028;8.916;2023-05-07T12:47:47;6.20;;;4.97;;
6842;SDS011;3460;52.028;8.916;2023-05-07T12:50:14;6.60;;;5.47;;
6842;SDS011;3460;52.028;8.916;2023-05-07T12:52:42;6.33;;;5.43;;
6842;SDS011;3460;52.028;8.916;2023-05-07T12:55:12;6.60;;;5.07;;
6842;SDS011;3460;52.028;8.916;2023-05-07T12:57:41;5.80;;;5.20;;
6842;SDS011;3460;52.028;8.916;2023-05-07T13:00:11;6.37;;;4.90;;
6842;SDS011;3460;52.028;8.916;2023-05-07T13:02:39;6.10;;;4.83;;
6842;SDS011;3460;52.028;8.916;2023-05-07T13:05:09;6.20;;;5.17;;
6842;SDS011;3460;52.028;8.916;2023-05-07T13:07:36;6.07;;;5.10;;
6842;SDS011;3460;52.028;8.916;2023-05-07T13:10:03;6.43;;;5.40;;
6842;SDS011;3460;52.028;8.916;2023-05-07T13:12:31;7.63;;;5.43;;
6842;SDS011;3460;52.028;8.916;2023-05-07T13:14:58;7.20;;;5.10;;
6842;SDS011;3460;52.028;8.916;2023-05-07T13:17:26;6.17;;;5.27;;
6842;SDS011;3460;52.028;8.916;2023-05-07T13:19:53;8.37;;;5.07;;
6842;SDS011;3460;52.028;8.916;2023-05-07T13:22:20;6.30;;;5.67;;
6842;SDS011;3460;52.028;8.916;2023-05-07T13:24:46;5.90;;;5.23;;
6842;SDS011;3460;52.028;8.916;2023-05-07T13:27:13;8.33;;;5.50;;
6842;SDS011;3460;52.028;8.916;2023-05-07T13:29:40;8.27;;;5.37;;
6842;SDS011;3460;52.028;8.916;2023-05-07T13:32:07;6.97;;;5.17;;
6842;SDS011;3460;52.028;8.916;2023-05-07T13:34:35;6.17;;;5.50;;
6842;SDS011;3460;52.028;8.916;2023-05-07T13:37:02;5.47;;;4.87;;
6842;SDS011;3460;52.028;8.916;2023-05-07T13:39:28;6.20;;;5.13;;
6842;SDS011;3460;52.028;8.916;2023-05-07T13:41:55;5.87;;;4.90;;
6842;SDS011;3460;52.028;8.916;2023-05-07T13:44:22;7.63;;;5.70;;
6842;SDS011;3460;52.028;8.916;2023-05-07T13:46:49;6.10;;;5.33;;
6842;SDS011;3460;52.028;8.916;2023-05-07T13:49:16;6.53;;;5.50;;
6842;SDS011;3460;52.028;8.916;2023-05-07T13:51:44;6.83;;;5.30;;
6842;SDS011;3460;52.028;8.916;2023-05-07T13:54:11;5.73;;;4.50;;
6842;SDS011;3460;52.028;8.916;2023-05-07T13:56:38;6.10;;;5.10;;
6842;SDS011;3460;52.028;8.916;2023-05-07T13:59:05;7.43;;;5.27;;
6842;SDS011;3460;52.028;8.916;2023-05-07T14:01:32;6.57;;;4.50;;
6842;SDS011;3460;52.028;8.916;2023-05-07T14:03:58;7.23;;;5.13;;
6842;SDS011;3460;52.028;8.916;2023-05-07T14:06:25;6.27;;;5.30;;
6842;SDS011;3460;52.028;8.916;2023-05-07T14:08:53;6.70;;;5.30;;
6842;SDS011;3460;52.028;8.916;2023-05-07T14:11:23;7.07;;;5.60;;
6842;SDS011;3460;52.028;8.916;2023-05-07T14:13:49;4.90;;;4.13;;
6842;SDS011;3460;52.028;8.916;2023-05-07T14:16:16;5.60;;;4.90;;
6842;SDS011;3460;52.028;8.916;2023-05-07T14:18:43;6.43;;;4.70;;
6842;SDS011;3460;52.028;8.916;2023-05-07T14:21:10;6.30;;;4.30;;
6842;SDS011;3460;52.028;8.916;2023-05-07T14:23:37;4.97;;;4.40;;
6842;SDS011;3460;52.028;8.916;2023-05-07T14:26:05;5.23;;;4.53;;
6842;SDS011;3460;52.028;8.916;2023-05-07T14:28:32;9.27;;;5.13;;
6842;SDS011;3460;52.028;8.916;2023-05-07T14:30:58;5.90;;;5.10;;
6842;SDS011;3460;52.028;8.916;2023-05-07T14:33:25;5.30;;;4.70;;
6842;SDS011;3460;52.028;8.916;2023-05-07T14:35:52;5.53;;;4.80;;
6842;SDS011;3460;52.028;8.916;2023-05-07T14:38:19;7.20;;;4.73;;
6842;SDS011;3460;52.028;8.916;2023-05-07T14:40:46;6.33;;;5.13;;
6842;SDS011;3460;52.028;8.916;2023-05-07T14:43:15;5.53;;;4.40;;
6842;SDS011;3460;52.028;8.916;2023-05-07T14:45:41;4.97;;;4.43;;
6842;SDS011;3460;52.028;8.916;2023-05-07T14:48:08;7.63;;;4.73;;
6842;SDS011;3460;52.028;8.916;2023-05-07T14:50:40;6.60;;;4.33;;
6842;SDS011;3460;52.028;8.916;2023-05-07T14:53:06;6.87;;;5.03;;
6842;SDS011;3460;52.028;8.916;2023-05-07T14:55:33;5.37;;;4.73;;
6842;SDS011;3460;52.028;8.916;2023-05-07T14:58:00;5.30;;;4.80;;
6842;SDS011;3460;52.028;8.916;2023-05-07T15:00:29;5.20;;;4.70;;
6842;SDS011;3460;52.028;8.916;2023-05-07T15:03:01;5.37;;;4.67;;
6842;SDS011;3460;52.028;8.916;2023-05-07T15:05:32;6.03;;;5.10;;
6842;SDS011;3460;52.028;8.916;2023-05-07T15:07:59;7.37;;;5.70;;
6842;SDS011;3460;52.028;8.916;2023-05-07T15:10:26;6.20;;;5.10;;
6842;SDS011;3460;52.028;8.916;2023-05-07T15:12:53;5.93;;;5.20;;
6842;SDS011;3460;52.028;8.916;2023-05-07T15:15:20;6.63;;;4.60;;
6842;SDS011;3460;52.028;8.916;2023-05-07T15:17:48;6.67;;;5.20;;
6842;SDS011;3460;52.028;8.916;2023-05-07T15:20:15;5.67;;;4.67;;